sensor_id;sensor_type;location;lat;lon;timestamp;temperature;humidity
13458;DHT22;6801;53.018;11.560;2022-09-09T00:02:18;15.60;80.00
13458;DHT22;6801;53.018;11.560;2022-09-09T00:04:53;15.60;79.90
13458;DHT22;6801;53.018;11.560;2022-09-09T00:07:34;15.60;79.80
13458;DHT22;6801;53.018;11.560;2022-09-09T00:10:13;15.60;79.50
13458;DHT22;6801;53.018;11.560;2022-09-09T00:12:47;15.60;79.40
13458;DHT22;6801;53.018;11.560;2022-09-09T00:15:20;15.60;79.10
13458;DHT22;6801;53.018;11.560;2022-09-09T00:17:52;15.60;78.80
13458;DHT22;6801;53.018;11.560;2022-09-09T00:20:28;15.60;78.70
13458;DHT22;6801;53.018;11.560;2022-09-09T00:23:03;15.60;78.80
13458;DHT22;6801;53.018;11.560;2022-09-09T00:25:37;15.60;78.80
13458;DHT22;6801;53.018;11.560;2022-09-09T00:28:13;15.50;78.80
13458;DHT22;6801;53.018;11.560;2022-09-09T00:30:45;15.50;78.90
13458;DHT22;6801;53.018;11.560;2022-09-09T00:33:15;15.50;78.70
13458;DHT22;6801;53.018;11.560;2022-09-09T00:35:48;15.50;78.60
13458;DHT22;6801;53.018;11.560;2022-09-09T00:38:19;15.50;78.50
13458;DHT22;6801;53.018;11.560;2022-09-09T00:40:51;15.50;78.20
13458;DHT22;6801;53.018;11.560;2022-09-09T00:43:26;15.50;78.20
13458;DHT22;6801;53.018;11.560;2022-09-09T00:46:41;15.50;78.00
13458;DHT22;6801;53.018;11.560;2022-09-09T00:49:20;15.50;78.00
13458;DHT22;6801;53.018;11.560;2022-09-09T00:51:58;15.50;77.50
13458;DHT22;6801;53.018;11.560;2022-09-09T00:54:33;15.50;77.50
13458;DHT22;6801;53.018;11.560;2022-09-09T00:57:12;15.50;77.40
13458;DHT22;6801;53.018;11.560;2022-09-09T00:59:47;15.50;77.40
13458;DHT22;6801;53.018;11.560;2022-09-09T01:02:26;15.50;77.60
13458;DHT22;6801;53.018;11.560;2022-09-09T01:04:55;15.50;77.40
13458;DHT22;6801;53.018;11.560;2022-09-09T01:07:27;15.50;77.20
13458;DHT22;6801;53.018;11.560;2022-09-09T01:09:56;15.50;77.20
13458;DHT22;6801;53.018;11.560;2022-09-09T01:12:30;15.50;77.20
13458;DHT22;6801;53.018;11.560;2022-09-09T01:15:08;15.50;77.10
13458;DHT22;6801;53.018;11.560;2022-09-09T01:17:50;15.40;76.90
13458;DHT22;6801;53.018;11.560;2022-09-09T01:20:22;15.40;77.00
13458;DHT22;6801;53.018;11.560;2022-09-09T01:23:16;15.40;76.90
13458;DHT22;6801;53.018;11.560;2022-09-09T01:26:15;15.40;76.90
13458;DHT22;6801;53.018;11.560;2022-09-09T01:28:44;15.40;76.80
13458;DHT22;6801;53.018;11.560;2022-09-09T01:31:17;15.40;76.70
13458;DHT22;6801;53.018;11.560;2022-09-09T01:33:47;15.40;76.80
13458;DHT22;6801;53.018;11.560;2022-09-09T01:36:20;15.30;76.70
13458;DHT22;6801;53.018;11.560;2022-09-09T01:38:51;15.30;76.70
13458;DHT22;6801;53.018;11.560;2022-09-09T01:41:20;15.30;76.80
13458;DHT22;6801;53.018;11.560;2022-09-09T01:43:55;15.30;77.00
13458;DHT22;6801;53.018;11.560;2022-09-09T01:46:25;15.30;77.10
13458;DHT22;6801;53.018;11.560;2022-09-09T01:48:53;15.30;76.90
13458;DHT22;6801;53.018;11.560;2022-09-09T01:51:21;15.30;76.80
13458;DHT22;6801;53.018;11.560;2022-09-09T01:53:50;15.20;76.60
13458;DHT22;6801;53.018;11.560;2022-09-09T01:56:26;15.20;76.60
13458;DHT22;6801;53.018;11.560;2022-09-09T01:59:07;15.20;76.50
13458;DHT22;6801;53.018;11.560;2022-09-09T02:01:40;15.20;76.60
13458;DHT22;6801;53.018;11.560;2022-09-09T02:04:23;15.20;76.60
13458;DHT22;6801;53.018;11.560;2022-09-09T02:06:56;15.10;76.20
13458;DHT22;6801;53.018;11.560;2022-09-09T02:09:29;15.10;76.30
13458;DHT22;6801;53.018;11.560;2022-09-09T02:12:06;15.10;76.10
13458;DHT22;6801;53.018;11.560;2022-09-09T02:14:48;15.10;76.10
13458;DHT22;6801;53.018;11.560;2022-09-09T02:17:21;15.10;76.00
13458;DHT22;6801;53.018;11.560;2022-09-09T02:20:05;15.10;76.00
13458;DHT22;6801;53.018;11.560;2022-09-09T02:22:43;15.00;75.90
13458;DHT22;6801;53.018;11.560;2022-09-09T02:25:15;15.00;76.00
13458;DHT22;6801;53.018;11.560;2022-09-09T02:27:46;15.00;75.90
13458;DHT22;6801;53.018;11.560;2022-09-09T02:30:15;15.00;75.90
13458;DHT22;6801;53.018;11.560;2022-09-09T02:32:51;15.00;75.80
13458;DHT22;6801;53.018;11.560;2022-09-09T02:35:25;15.00;75.80
13458;DHT22;6801;53.018;11.560;2022-09-09T02:37:55;14.90;75.80
13458;DHT22;6801;53.018;11.560;2022-09-09T02:40:25;14.90;75.80
13458;DHT22;6801;53.018;11.560;2022-09-09T02:43:00;14.90;75.70
13458;DHT22;6801;53.018;11.560;2022-09-09T02:45:36;14.80;75.70
13458;DHT22;6801;53.018;11.560;2022-09-09T02:48:16;14.80;75.70
13458;DHT22;6801;53.018;11.560;2022-09-09T02:50:52;14.80;75.70
13458;DHT22;6801;53.018;11.560;2022-09-09T02:53:26;14.80;75.70
13458;DHT22;6801;53.018;11.560;2022-09-09T02:55:58;14.80;75.70
13458;DHT22;6801;53.018;11.560;2022-09-09T02:58:33;14.80;75.70
13458;DHT22;6801;53.018;11.560;2022-09-09T03:01:04;14.70;75.70
13458;DHT22;6801;53.018;11.560;2022-09-09T03:03:31;14.80;75.80
13458;DHT22;6801;53.018;11.560;2022-09-09T03:06:03;14.70;75.80
13458;DHT22;6801;53.018;11.560;2022-09-09T03:08:31;14.70;75.90
13458;DHT22;6801;53.018;11.560;2022-09-09T03:11:00;14.70;75.90
13458;DHT22;6801;53.018;11.560;2022-09-09T03:13:30;14.70;75.80
13458;DHT22;6801;53.018;11.560;2022-09-09T03:15:59;14.70;75.70
13458;DHT22;6801;53.018;11.560;2022-09-09T03:18:29;14.70;75.70
13458;DHT22;6801;53.018;11.560;2022-09-09T03:20:57;14.70;75.90
13458;DHT22;6801;53.018;11.560;2022-09-09T03:23:25;14.70;76.00
13458;DHT22;6801;53.018;11.560;2022-09-09T03:25:53;14.60;76.00
13458;DHT22;6801;53.018;11.560;2022-09-09T03:28:29;14.60;76.00
13458;DHT22;6801;53.018;11.560;2022-09-09T03:31:00;14.60;75.80
13458;DHT22;6801;53.018;11.560;2022-09-09T03:33:31;14.60;75.80
13458;DHT22;6801;53.018;11.560;2022-09-09T03:36:00;14.60;75.70
13458;DHT22;6801;53.018;11.560;2022-09-09T03:38:28;14.60;75.60
13458;DHT22;6801;53.018;11.560;2022-09-09T03:40:56;14.60;75.50
13458;DHT22;6801;53.018;11.560;2022-09-09T03:43:25;14.60;75.50
13458;DHT22;6801;53.018;11.560;2022-09-09T03:45:53;14.50;75.50
13458;DHT22;6801;53.018;11.560;2022-09-09T03:48:24;14.50;75.40
13458;DHT22;6801;53.018;11.560;2022-09-09T03:50:54;14.50;75.40
13458;DHT22;6801;53.018;11.560;2022-09-09T03:53:24;14.50;75.10
13458;DHT22;6801;53.018;11.560;2022-09-09T03:55:53;14.50;75.10
13458;DHT22;6801;53.018;11.560;2022-09-09T03:58:23;14.50;75.20
13458;DHT22;6801;53.018;11.560;2022-09-09T04:00:54;14.40;75.20
13458;DHT22;6801;53.018;11.560;2022-09-09T04:03:22;14.40;75.40
13458;DHT22;6801;53.018;11.560;2022-09-09T04:05:51;14.40;75.50
13458;DHT22;6801;53.018;11.560;2022-09-09T04:08:20;14.40;75.50
13458;DHT22;6801;53.018;11.560;2022-09-09T04:10:49;14.40;75.40
13458;DHT22;6801;53.018;11.560;2022-09-09T04:13:17;14.40;75.50
13458;DHT22;6801;53.018;11.560;2022-09-09T04:15:51;14.40;75.40
13458;DHT22;6801;53.018;11.560;2022-09-09T04:18:19;14.30;75.50
13458;DHT22;6801;53.018;11.560;2022-09-09T04:20:47;14.30;75.50
13458;DHT22;6801;53.018;11.560;2022-09-09T04:23:18;14.30;75.50
13458;DHT22;6801;53.018;11.560;2022-09-09T04:25:46;14.40;75.70
13458;DHT22;6801;53.018;11.560;2022-09-09T04:28:14;14.30;75.70
13458;DHT22;6801;53.018;11.560;2022-09-09T04:30:42;14.30;75.60
13458;DHT22;6801;53.018;11.560;2022-09-09T04:33:10;14.30;75.50
13458;DHT22;6801;53.018;11.560;2022-09-09T04:35:38;14.30;75.50
13458;DHT22;6801;53.018;11.560;2022-09-09T04:38:06;14.20;75.40
13458;DHT22;6801;53.018;11.560;2022-09-09T04:40:36;14.30;75.30
13458;DHT22;6801;53.018;11.560;2022-09-09T04:43:09;14.20;75.40
13458;DHT22;6801;53.018;11.560;2022-09-09T04:45:36;14.20;75.30
13458;DHT22;6801;53.018;11.560;2022-09-09T04:48:03;14.20;75.30
13458;DHT22;6801;53.018;11.560;2022-09-09T04:50:30;14.30;75.40
13458;DHT22;6801;53.018;11.560;2022-09-09T04:53:00;14.20;75.30
13458;DHT22;6801;53.018;11.560;2022-09-09T04:55:28;14.20;75.30
13458;DHT22;6801;53.018;11.560;2022-09-09T04:57:57;14.20;75.30
13458;DHT22;6801;53.018;11.560;2022-09-09T05:00:24;14.20;75.30
13458;DHT22;6801;53.018;11.560;2022-09-09T05:02:52;14.20;75.40
13458;DHT22;6801;53.018;11.560;2022-09-09T05:05:18;14.20;75.30
13458;DHT22;6801;53.018;11.560;2022-09-09T05:07:47;14.20;75.40
13458;DHT22;6801;53.018;11.560;2022-09-09T05:10:15;14.20;75.40
13458;DHT22;6801;53.018;11.560;2022-09-09T05:12:52;14.20;75.60
13458;DHT22;6801;53.018;11.560;2022-09-09T05:15:21;14.20;75.60
13458;DHT22;6801;53.018;11.560;2022-09-09T05:17:48;14.20;75.50
13458;DHT22;6801;53.018;11.560;2022-09-09T05:20:16;14.20;75.50
13458;DHT22;6801;53.018;11.560;2022-09-09T05:22:44;14.20;75.70
13458;DHT22;6801;53.018;11.560;2022-09-09T05:25:11;14.20;75.90
13458;DHT22;6801;53.018;11.560;2022-09-09T05:27:39;14.20;76.00
13458;DHT22;6801;53.018;11.560;2022-09-09T05:30:07;14.20;76.00
13458;DHT22;6801;53.018;11.560;2022-09-09T05:32:35;14.20;76.10
13458;DHT22;6801;53.018;11.560;2022-09-09T05:35:03;14.20;76.10
13458;DHT22;6801;53.018;11.560;2022-09-09T05:37:31;14.30;76.10
13458;DHT22;6801;53.018;11.560;2022-09-09T05:39:58;14.30;76.00
13458;DHT22;6801;53.018;11.560;2022-09-09T05:42:30;14.30;76.10
13458;DHT22;6801;53.018;11.560;2022-09-09T05:44:57;14.30;76.10
13458;DHT22;6801;53.018;11.560;2022-09-09T05:47:25;14.30;76.10
13458;DHT22;6801;53.018;11.560;2022-09-09T05:49:55;14.30;76.00
13458;DHT22;6801;53.018;11.560;2022-09-09T05:52:22;14.30;76.30
13458;DHT22;6801;53.018;11.560;2022-09-09T05:54:51;14.40;76.20
13458;DHT22;6801;53.018;11.560;2022-09-09T05:57:20;14.40;76.20
13458;DHT22;6801;53.018;11.560;2022-09-09T05:59:47;14.40;76.10
13458;DHT22;6801;53.018;11.560;2022-09-09T06:02:15;14.50;76.10
13458;DHT22;6801;53.018;11.560;2022-09-09T06:04:42;14.50;76.30
13458;DHT22;6801;53.018;11.560;2022-09-09T06:07:12;14.50;76.30
13458;DHT22;6801;53.018;11.560;2022-09-09T06:09:40;14.50;76.30
13458;DHT22;6801;53.018;11.560;2022-09-09T06:12:07;14.50;76.30
13458;DHT22;6801;53.018;11.560;2022-09-09T06:14:35;14.50;76.30
13458;DHT22;6801;53.018;11.560;2022-09-09T06:17:03;14.60;76.40
13458;DHT22;6801;53.018;11.560;2022-09-09T06:19:30;14.60;76.30
13458;DHT22;6801;53.018;11.560;2022-09-09T06:21:58;14.60;76.30
13458;DHT22;6801;53.018;11.560;2022-09-09T06:24:29;14.60;76.30
13458;DHT22;6801;53.018;11.560;2022-09-09T06:26:57;14.70;76.40
13458;DHT22;6801;53.018;11.560;2022-09-09T06:29:27;14.70;76.50
13458;DHT22;6801;53.018;11.560;2022-09-09T06:31:54;14.70;76.70
13458;DHT22;6801;53.018;11.560;2022-09-09T06:34:23;14.80;77.00
13458;DHT22;6801;53.018;11.560;2022-09-09T06:36:54;14.80;77.00
13458;DHT22;6801;53.018;11.560;2022-09-09T06:39:23;14.90;77.00
13458;DHT22;6801;53.018;11.560;2022-09-09T06:41:51;14.90;77.00
13458;DHT22;6801;53.018;11.560;2022-09-09T06:44:39;14.90;76.90
13458;DHT22;6801;53.018;11.560;2022-09-09T06:47:10;15.00;76.80
13458;DHT22;6801;53.018;11.560;2022-09-09T06:49:38;15.00;77.00
13458;DHT22;6801;53.018;11.560;2022-09-09T06:52:08;15.00;77.00
13458;DHT22;6801;53.018;11.560;2022-09-09T06:54:35;15.00;77.00
13458;DHT22;6801;53.018;11.560;2022-09-09T06:57:04;15.00;77.10
13458;DHT22;6801;53.018;11.560;2022-09-09T06:59:33;15.10;77.10
13458;DHT22;6801;53.018;11.560;2022-09-09T07:02:00;15.10;77.10
13458;DHT22;6801;53.018;11.560;2022-09-09T07:04:28;15.10;77.10
13458;DHT22;6801;53.018;11.560;2022-09-09T07:06:55;15.20;77.10
13458;DHT22;6801;53.018;11.560;2022-09-09T07:09:24;15.20;77.10
13458;DHT22;6801;53.018;11.560;2022-09-09T07:11:53;15.20;77.00
13458;DHT22;6801;53.018;11.560;2022-09-09T07:14:23;15.20;77.00
13458;DHT22;6801;53.018;11.560;2022-09-09T07:16:54;15.30;77.20
13458;DHT22;6801;53.018;11.560;2022-09-09T07:19:21;15.30;77.10
13458;DHT22;6801;53.018;11.560;2022-09-09T07:21:51;15.30;77.10
13458;DHT22;6801;53.018;11.560;2022-09-09T07:24:21;15.40;77.10
13458;DHT22;6801;53.018;11.560;2022-09-09T07:26:48;15.40;77.10
13458;DHT22;6801;53.018;11.560;2022-09-09T07:29:15;15.50;77.20
13458;DHT22;6801;53.018;11.560;2022-09-09T07:31:44;15.50;77.20
13458;DHT22;6801;53.018;11.560;2022-09-09T07:34:16;15.50;77.50
13458;DHT22;6801;53.018;11.560;2022-09-09T07:36:43;15.50;77.60
13458;DHT22;6801;53.018;11.560;2022-09-09T07:39:13;15.60;77.70
13458;DHT22;6801;53.018;11.560;2022-09-09T07:41:46;15.70;77.80
13458;DHT22;6801;53.018;11.560;2022-09-09T07:44:18;15.70;77.90
13458;DHT22;6801;53.018;11.560;2022-09-09T07:46:50;15.80;78.00
13458;DHT22;6801;53.018;11.560;2022-09-09T07:49:22;15.90;78.00
13458;DHT22;6801;53.018;11.560;2022-09-09T07:51:49;15.90;78.10
13458;DHT22;6801;53.018;11.560;2022-09-09T07:54:18;16.00;78.10
13458;DHT22;6801;53.018;11.560;2022-09-09T07:56:49;16.00;78.20
13458;DHT22;6801;53.018;11.560;2022-09-09T07:59:18;16.00;78.30
13458;DHT22;6801;53.018;11.560;2022-09-09T08:01:50;16.10;78.30
13458;DHT22;6801;53.018;11.560;2022-09-09T08:04:20;16.20;78.50
13458;DHT22;6801;53.018;11.560;2022-09-09T08:06:49;16.20;78.50
13458;DHT22;6801;53.018;11.560;2022-09-09T08:09:18;16.30;78.80
13458;DHT22;6801;53.018;11.560;2022-09-09T08:11:47;16.40;78.90
13458;DHT22;6801;53.018;11.560;2022-09-09T08:14:14;16.50;79.30
13458;DHT22;6801;53.018;11.560;2022-09-09T08:16:43;16.50;79.50
13458;DHT22;6801;53.018;11.560;2022-09-09T08:19:14;16.60;79.80
13458;DHT22;6801;53.018;11.560;2022-09-09T08:21:42;16.70;79.70
13458;DHT22;6801;53.018;11.560;2022-09-09T08:24:11;16.80;79.50
13458;DHT22;6801;53.018;11.560;2022-09-09T08:26:41;16.90;79.40
13458;DHT22;6801;53.018;11.560;2022-09-09T08:29:11;17.00;79.20
13458;DHT22;6801;53.018;11.560;2022-09-09T08:31:40;17.00;79.20
13458;DHT22;6801;53.018;11.560;2022-09-09T08:34:08;17.10;79.00
13458;DHT22;6801;53.018;11.560;2022-09-09T08:36:39;17.20;79.00
13458;DHT22;6801;53.018;11.560;2022-09-09T08:39:09;17.30;79.10
13458;DHT22;6801;53.018;11.560;2022-09-09T08:42:00;17.40;79.30
13458;DHT22;6801;53.018;11.560;2022-09-09T08:44:46;17.50;79.60
13458;DHT22;6801;53.018;11.560;2022-09-09T08:47:24;17.50;79.20
13458;DHT22;6801;53.018;11.560;2022-09-09T08:50:05;17.60;79.20
13458;DHT22;6801;53.018;11.560;2022-09-09T08:52:40;17.70;79.00
13458;DHT22;6801;53.018;11.560;2022-09-09T08:55:19;17.70;78.90
13458;DHT22;6801;53.018;11.560;2022-09-09T08:57:49;17.70;78.70
13458;DHT22;6801;53.018;11.560;2022-09-09T09:00:18;17.70;78.40
13458;DHT22;6801;53.018;11.560;2022-09-09T09:02:51;17.80;78.40
13458;DHT22;6801;53.018;11.560;2022-09-09T09:05:28;17.90;78.60
13458;DHT22;6801;53.018;11.560;2022-09-09T09:08:06;18.00;78.70
13458;DHT22;6801;53.018;11.560;2022-09-09T09:10:44;18.00;79.10
13458;DHT22;6801;53.018;11.560;2022-09-09T09:13:18;18.10;79.10
13458;DHT22;6801;53.018;11.560;2022-09-09T09:15:50;18.20;78.90
13458;DHT22;6801;53.018;11.560;2022-09-09T09:18:18;18.30;78.80
13458;DHT22;6801;53.018;11.560;2022-09-09T09:20:53;18.40;78.70
13458;DHT22;6801;53.018;11.560;2022-09-09T09:23:25;18.50;78.80
13458;DHT22;6801;53.018;11.560;2022-09-09T09:25:59;18.60;78.80
13458;DHT22;6801;53.018;11.560;2022-09-09T09:28:30;18.70;78.70
13458;DHT22;6801;53.018;11.560;2022-09-09T09:31:06;18.80;78.40
13458;DHT22;6801;53.018;11.560;2022-09-09T09:33:45;18.90;78.30
13458;DHT22;6801;53.018;11.560;2022-09-09T09:36:14;19.00;78.30
13458;DHT22;6801;53.018;11.560;2022-09-09T09:38:54;19.10;78.20
13458;DHT22;6801;53.018;11.560;2022-09-09T09:41:30;19.20;77.90
13458;DHT22;6801;53.018;11.560;2022-09-09T09:43:58;19.30;77.60
13458;DHT22;6801;53.018;11.560;2022-09-09T09:46:27;19.40;77.60
13458;DHT22;6801;53.018;11.560;2022-09-09T09:49:09;19.50;77.40
13458;DHT22;6801;53.018;11.560;2022-09-09T09:51:38;19.50;77.20
13458;DHT22;6801;53.018;11.560;2022-09-09T09:54:15;19.60;77.10
13458;DHT22;6801;53.018;11.560;2022-09-09T09:56:49;19.60;77.00
13458;DHT22;6801;53.018;11.560;2022-09-09T09:59:23;19.70;76.90
13458;DHT22;6801;53.018;11.560;2022-09-09T10:02:12;19.70;76.90
13458;DHT22;6801;53.018;11.560;2022-09-09T10:04:40;19.80;76.80
13458;DHT22;6801;53.018;11.560;2022-09-09T10:07:11;19.90;76.70
13458;DHT22;6801;53.018;11.560;2022-09-09T10:09:40;20.00;76.40
13458;DHT22;6801;53.018;11.560;2022-09-09T10:12:19;20.00;76.30
13458;DHT22;6801;53.018;11.560;2022-09-09T10:14:55;20.10;76.30
13458;DHT22;6801;53.018;11.560;2022-09-09T10:17:29;20.20;75.80
13458;DHT22;6801;53.018;11.560;2022-09-09T10:20:14;20.20;75.40
13458;DHT22;6801;53.018;11.560;2022-09-09T10:22:49;20.30;75.20
13458;DHT22;6801;53.018;11.560;2022-09-09T10:25:34;20.40;75.10
13458;DHT22;6801;53.018;11.560;2022-09-09T10:28:28;20.50;74.70
13458;DHT22;6801;53.018;11.560;2022-09-09T10:31:04;20.50;74.70
13458;DHT22;6801;53.018;11.560;2022-09-09T10:33:41;20.60;74.20
13458;DHT22;6801;53.018;11.560;2022-09-09T10:36:16;20.60;73.70
13458;DHT22;6801;53.018;11.560;2022-09-09T10:38:46;20.60;73.30
13458;DHT22;6801;53.018;11.560;2022-09-09T10:41:19;20.60;73.10
13458;DHT22;6801;53.018;11.560;2022-09-09T10:44:06;20.60;72.90
13458;DHT22;6801;53.018;11.560;2022-09-09T10:49:37;20.70;72.80
13458;DHT22;6801;53.018;11.560;2022-09-09T10:52:14;20.70;72.50
13458;DHT22;6801;53.018;11.560;2022-09-09T10:54:52;20.70;72.40
13458;DHT22;6801;53.018;11.560;2022-09-09T10:57:28;20.70;72.40
13458;DHT22;6801;53.018;11.560;2022-09-09T11:00:01;20.60;72.20
13458;DHT22;6801;53.018;11.560;2022-09-09T11:02:31;20.60;72.30
13458;DHT22;6801;53.018;11.560;2022-09-09T11:05:02;20.70;72.30
13458;DHT22;6801;53.018;11.560;2022-09-09T11:07:34;20.70;72.50
13458;DHT22;6801;53.018;11.560;2022-09-09T11:10:07;20.70;72.60
13458;DHT22;6801;53.018;11.560;2022-09-09T11:12:42;20.70;72.40
13458;DHT22;6801;53.018;11.560;2022-09-09T11:15:17;20.70;72.40
13458;DHT22;6801;53.018;11.560;2022-09-09T11:17:49;20.80;72.20
13458;DHT22;6801;53.018;11.560;2022-09-09T11:20:17;20.80;71.40
13458;DHT22;6801;53.018;11.560;2022-09-09T11:22:48;20.80;70.80
13458;DHT22;6801;53.018;11.560;2022-09-09T11:25:19;20.80;70.80
13458;DHT22;6801;53.018;11.560;2022-09-09T11:28:06;20.80;70.80
13458;DHT22;6801;53.018;11.560;2022-09-09T11:30:46;20.90;71.00
13458;DHT22;6801;53.018;11.560;2022-09-09T11:33:33;20.90;71.20
13458;DHT22;6801;53.018;11.560;2022-09-09T11:36:16;21.00;71.00
13458;DHT22;6801;53.018;11.560;2022-09-09T11:38:49;21.00;71.00
13458;DHT22;6801;53.018;11.560;2022-09-09T11:41:18;21.10;70.50
13458;DHT22;6801;53.018;11.560;2022-09-09T11:43:48;21.10;70.40
13458;DHT22;6801;53.018;11.560;2022-09-09T11:46:18;21.20;69.70
13458;DHT22;6801;53.018;11.560;2022-09-09T11:48:58;21.20;69.60
13458;DHT22;6801;53.018;11.560;2022-09-09T11:51:27;21.30;69.80
13458;DHT22;6801;53.018;11.560;2022-09-09T11:53:56;21.30;70.20
13458;DHT22;6801;53.018;11.560;2022-09-09T11:56:26;21.50;69.90
13458;DHT22;6801;53.018;11.560;2022-09-09T11:58:58;21.50;69.70
13458;DHT22;6801;53.018;11.560;2022-09-09T12:01:44;21.70;67.80
13458;DHT22;6801;53.018;11.560;2022-09-09T12:04:33;21.70;67.90
13458;DHT22;6801;53.018;11.560;2022-09-09T12:07:04;21.90;67.90
13458;DHT22;6801;53.018;11.560;2022-09-09T12:09:49;22.00;67.90
13458;DHT22;6801;53.018;11.560;2022-09-09T12:12:29;22.00;68.00
13458;DHT22;6801;53.018;11.560;2022-09-09T12:15:00;22.20;68.20
13458;DHT22;6801;53.018;11.560;2022-09-09T12:17:30;22.30;67.80
13458;DHT22;6801;53.018;11.560;2022-09-09T12:20:02;22.40;67.60
13458;DHT22;6801;53.018;11.560;2022-09-09T12:22:38;22.50;67.70
13458;DHT22;6801;53.018;11.560;2022-09-09T12:25:13;22.50;67.40
13458;DHT22;6801;53.018;11.560;2022-09-09T12:27:46;22.60;67.50
13458;DHT22;6801;53.018;11.560;2022-09-09T12:30:17;22.80;67.60
13458;DHT22;6801;53.018;11.560;2022-09-09T12:32:45;22.80;67.20
13458;DHT22;6801;53.018;11.560;2022-09-09T12:35:18;22.90;66.60
13458;DHT22;6801;53.018;11.560;2022-09-09T12:37:50;22.90;66.80
13458;DHT22;6801;53.018;11.560;2022-09-09T12:40:21;23.00;67.20
13458;DHT22;6801;53.018;11.560;2022-09-09T12:42:49;23.00;66.60
13458;DHT22;6801;53.018;11.560;2022-09-09T12:45:19;23.10;66.50
13458;DHT22;6801;53.018;11.560;2022-09-09T12:47:49;23.20;66.40
13458;DHT22;6801;53.018;11.560;2022-09-09T12:50:21;23.20;66.00
13458;DHT22;6801;53.018;11.560;2022-09-09T12:52:49;23.30;65.80
13458;DHT22;6801;53.018;11.560;2022-09-09T12:55:18;23.40;66.10
13458;DHT22;6801;53.018;11.560;2022-09-09T12:57:48;23.40;65.70
13458;DHT22;6801;53.018;11.560;2022-09-09T13:00:20;23.50;65.70
13458;DHT22;6801;53.018;11.560;2022-09-09T13:02:50;23.50;64.80
13458;DHT22;6801;53.018;11.560;2022-09-09T13:05:20;23.60;65.60
13458;DHT22;6801;53.018;11.560;2022-09-09T13:07:47;23.70;64.90
13458;DHT22;6801;53.018;11.560;2022-09-09T13:10:19;23.70;64.90
13458;DHT22;6801;53.018;11.560;2022-09-09T13:12:47;23.80;64.80
13458;DHT22;6801;53.018;11.560;2022-09-09T13:15:22;23.80;64.80
13458;DHT22;6801;53.018;11.560;2022-09-09T13:17:55;23.90;63.90
13458;DHT22;6801;53.018;11.560;2022-09-09T13:20:23;24.00;63.90
13458;DHT22;6801;53.018;11.560;2022-09-09T13:22:52;24.00;62.80
13458;DHT22;6801;53.018;11.560;2022-09-09T13:25:24;24.00;62.70
13458;DHT22;6801;53.018;11.560;2022-09-09T13:27:56;24.00;62.60
13458;DHT22;6801;53.018;11.560;2022-09-09T13:30:27;23.90;62.20
13458;DHT22;6801;53.018;11.560;2022-09-09T13:33:03;23.90;62.40
13458;DHT22;6801;53.018;11.560;2022-09-09T13:35:31;23.90;62.70
13458;DHT22;6801;53.018;11.560;2022-09-09T13:37:59;23.90;62.70
13458;DHT22;6801;53.018;11.560;2022-09-09T13:40:33;23.90;62.50
13458;DHT22;6801;53.018;11.560;2022-09-09T13:43:00;23.80;62.60
13458;DHT22;6801;53.018;11.560;2022-09-09T13:45:29;23.80;62.40
13458;DHT22;6801;53.018;11.560;2022-09-09T13:47:56;23.80;62.90
13458;DHT22;6801;53.018;11.560;2022-09-09T13:50:24;23.80;63.30
13458;DHT22;6801;53.018;11.560;2022-09-09T13:52:53;23.70;63.10
13458;DHT22;6801;53.018;11.560;2022-09-09T13:55:22;23.70;63.10
13458;DHT22;6801;53.018;11.560;2022-09-09T13:57:51;23.60;62.90
13458;DHT22;6801;53.018;11.560;2022-09-09T14:00:18;23.60;63.10
13458;DHT22;6801;53.018;11.560;2022-09-09T14:02:46;23.50;62.80
13458;DHT22;6801;53.018;11.560;2022-09-09T14:05:13;23.50;63.00
13458;DHT22;6801;53.018;11.560;2022-09-09T14:07:42;23.40;63.40
13458;DHT22;6801;53.018;11.560;2022-09-09T14:10:09;23.40;63.90
13458;DHT22;6801;53.018;11.560;2022-09-09T14:12:36;23.30;63.90
13458;DHT22;6801;53.018;11.560;2022-09-09T14:15:05;23.30;62.60
13458;DHT22;6801;53.018;11.560;2022-09-09T14:17:33;23.20;61.90
13458;DHT22;6801;53.018;11.560;2022-09-09T14:20:03;23.00;60.90
13458;DHT22;6801;53.018;11.560;2022-09-09T14:22:33;22.90;61.40
13458;DHT22;6801;53.018;11.560;2022-09-09T14:25:01;22.70;61.80
13458;DHT22;6801;53.018;11.560;2022-09-09T14:27:28;22.50;62.00
13458;DHT22;6801;53.018;11.560;2022-09-09T14:29:56;22.40;62.40
13458;DHT22;6801;53.018;11.560;2022-09-09T14:32:25;22.30;62.70
13458;DHT22;6801;53.018;11.560;2022-09-09T14:34:53;22.20;63.10
13458;DHT22;6801;53.018;11.560;2022-09-09T14:37:21;22.20;63.50
13458;DHT22;6801;53.018;11.560;2022-09-09T14:39:48;22.10;64.00
13458;DHT22;6801;53.018;11.560;2022-09-09T14:42:16;22.00;64.00
13458;DHT22;6801;53.018;11.560;2022-09-09T14:44:44;22.00;64.20
13458;DHT22;6801;53.018;11.560;2022-09-09T14:47:11;21.90;64.40
13458;DHT22;6801;53.018;11.560;2022-09-09T14:49:38;21.90;64.30
13458;DHT22;6801;53.018;11.560;2022-09-09T14:52:05;21.90;64.80
13458;DHT22;6801;53.018;11.560;2022-09-09T14:54:33;21.80;64.70
13458;DHT22;6801;53.018;11.560;2022-09-09T14:57:01;21.70;64.90
13458;DHT22;6801;53.018;11.560;2022-09-09T14:59:27;21.70;65.10
13458;DHT22;6801;53.018;11.560;2022-09-09T15:01:54;21.60;64.90
13458;DHT22;6801;53.018;11.560;2022-09-09T15:04:21;21.70;64.70
13458;DHT22;6801;53.018;11.560;2022-09-09T15:06:48;21.60;64.30
13458;DHT22;6801;53.018;11.560;2022-09-09T15:09:17;21.50;64.80
13458;DHT22;6801;53.018;11.560;2022-09-09T15:11:46;21.40;65.40
13458;DHT22;6801;53.018;11.560;2022-09-09T15:14:13;21.40;65.20
13458;DHT22;6801;53.018;11.560;2022-09-09T15:16:40;21.30;64.90
13458;DHT22;6801;53.018;11.560;2022-09-09T15:19:07;21.20;64.70
13458;DHT22;6801;53.018;11.560;2022-09-09T15:21:36;21.10;64.90
13458;DHT22;6801;53.018;11.560;2022-09-09T15:24:04;21.00;65.20
13458;DHT22;6801;53.018;11.560;2022-09-09T15:26:32;21.00;65.90
13458;DHT22;6801;53.018;11.560;2022-09-09T15:29:01;21.00;66.30
13458;DHT22;6801;53.018;11.560;2022-09-09T15:31:29;21.00;66.40
13458;DHT22;6801;53.018;11.560;2022-09-09T15:33:58;21.00;66.30
13458;DHT22;6801;53.018;11.560;2022-09-09T15:36:28;20.90;66.00
13458;DHT22;6801;53.018;11.560;2022-09-09T15:38:55;20.90;66.20
13458;DHT22;6801;53.018;11.560;2022-09-09T15:41:23;20.80;66.40
13458;DHT22;6801;53.018;11.560;2022-09-09T15:43:51;20.80;66.70
13458;DHT22;6801;53.018;11.560;2022-09-09T15:46:25;20.70;66.90
13458;DHT22;6801;53.018;11.560;2022-09-09T15:48:54;20.80;67.10
13458;DHT22;6801;53.018;11.560;2022-09-09T15:51:22;20.70;67.40
13458;DHT22;6801;53.018;11.560;2022-09-09T15:53:51;20.70;67.50
13458;DHT22;6801;53.018;11.560;2022-09-09T15:56:19;20.70;67.40
13458;DHT22;6801;53.018;11.560;2022-09-09T15:58:46;20.70;67.60
13458;DHT22;6801;53.018;11.560;2022-09-09T16:01:13;20.70;67.60